Cowichan Bay, Canada
Current Conditions -  °F | °C
As of 11:00 PM on Saturday 25 Oct 2014 (Local Time) from CYYJ Reporting Station
Overcast Overcast  
Wind Chill: 54°   Ceiling: 17000
Heat Index: 54°   Visibility: 20mi
Dew Point: 41°   Wind: 12mph
Humidity: 62%   Direction: 270°W
Pressure: 29.53"   Gusts: NA
Location:  48.73°N, 123.62°W
Report Text: CYYJ 260600Z 27010KT 220V300 20SM OVC170 12/05 A2953 RMK AC8 PRESRR SLP001 DENSITY ALT 100FT
Loading
Personal Weather Stations






























Interactive Weather Map
Tropical Storm Tracking
New forecast layout! Learn more

10-Day Weather Forecast

Advertisements
Track Severe Weather on mobile